sensor_id;sensor_type;location;lat;lon;timestamp;P1;durP1;ratioP1;P2;durP2;ratioP2
16878;SDS011;8556;52.218;9.884;2023-02-18T00:00:53;6.70;;;1.10;;
16878;SDS011;8556;52.218;9.884;2023-02-18T00:03:21;6.83;;;1.23;;
16878;SDS011;8556;52.218;9.884;2023-02-18T00:05:50;6.03;;;1.30;;
16878;SDS011;8556;52.218;9.884;2023-02-18T00:08:17;5.20;;;1.73;;
16878;SDS011;8556;52.218;9.884;2023-02-18T00:10:44;3.87;;;1.13;;
16878;SDS011;8556;52.218;9.884;2023-02-18T00:13:11;5.63;;;1.30;;
16878;SDS011;8556;52.218;9.884;2023-02-18T00:15:38;5.17;;;1.03;;
16878;SDS011;8556;52.218;9.884;2023-02-18T00:18:05;6.00;;;1.10;;
16878;SDS011;8556;52.218;9.884;2023-02-18T00:20:32;3.37;;;0.83;;
16878;SDS011;8556;52.218;9.884;2023-02-18T00:23:01;10.27;;;1.50;;
16878;SDS011;8556;52.218;9.884;2023-02-18T00:25:28;6.57;;;1.33;;
16878;SDS011;8556;52.218;9.884;2023-02-18T00:27:55;7.70;;;1.70;;
16878;SDS011;8556;52.218;9.884;2023-02-18T00:30:22;4.10;;;1.00;;
16878;SDS011;8556;52.218;9.884;2023-02-18T00:32:49;7.77;;;1.20;;
16878;SDS011;8556;52.218;9.884;2023-02-18T00:35:15;4.73;;;1.40;;
16878;SDS011;8556;52.218;9.884;2023-02-18T00:37:42;4.63;;;1.00;;
16878;SDS011;8556;52.218;9.884;2023-02-18T00:40:11;5.30;;;1.07;;
16878;SDS011;8556;52.218;9.884;2023-02-18T00:42:38;6.00;;;1.50;;
16878;SDS011;8556;52.218;9.884;2023-02-18T00:45:05;5.10;;;0.90;;
16878;SDS011;8556;52.218;9.884;2023-02-18T00:47:32;3.40;;;0.83;;
16878;SDS011;8556;52.218;9.884;2023-02-18T00:49:59;7.93;;;1.20;;
16878;SDS011;8556;52.218;9.884;2023-02-18T00:52:26;5.77;;;0.73;;
16878;SDS011;8556;52.218;9.884;2023-02-18T00:54:53;5.20;;;1.43;;
16878;SDS011;8556;52.218;9.884;2023-02-18T00:57:21;6.37;;;1.67;;
16878;SDS011;8556;52.218;9.884;2023-02-18T00:59:48;9.97;;;1.43;;
16878;SDS011;8556;52.218;9.884;2023-02-18T01:02:14;6.77;;;0.90;;
16878;SDS011;8556;52.218;9.884;2023-02-18T01:04:42;6.90;;;1.30;;
16878;SDS011;8556;52.218;9.884;2023-02-18T01:07:08;6.47;;;1.00;;
16878;SDS011;8556;52.218;9.884;2023-02-18T01:09:36;2.87;;;0.73;;
16878;SDS011;8556;52.218;9.884;2023-02-18T01:12:03;3.83;;;0.97;;
16878;SDS011;8556;52.218;9.884;2023-02-18T01:14:31;3.67;;;0.93;;
16878;SDS011;8556;52.218;9.884;2023-02-18T01:16:58;6.10;;;1.17;;
16878;SDS011;8556;52.218;9.884;2023-02-18T01:19:25;6.93;;;1.77;;
16878;SDS011;8556;52.218;9.884;2023-02-18T01:21:52;7.43;;;1.57;;
16878;SDS011;8556;52.218;9.884;2023-02-18T01:24:18;4.43;;;0.80;;
16878;SDS011;8556;52.218;9.884;2023-02-18T01:26:45;6.97;;;1.13;;
16878;SDS011;8556;52.218;9.884;2023-02-18T01:29:12;3.83;;;1.33;;
16878;SDS011;8556;52.218;9.884;2023-02-18T01:31:40;4.37;;;1.33;;
16878;SDS011;8556;52.218;9.884;2023-02-18T01:34:08;6.30;;;1.10;;
16878;SDS011;8556;52.218;9.884;2023-02-18T01:36:34;7.47;;;1.40;;
16878;SDS011;8556;52.218;9.884;2023-02-18T01:39:01;5.67;;;0.90;;
16878;SDS011;8556;52.218;9.884;2023-02-18T01:41:29;5.33;;;1.17;;
16878;SDS011;8556;52.218;9.884;2023-02-18T01:44:09;5.47;;;1.20;;
16878;SDS011;8556;52.218;9.884;2023-02-18T01:46:37;5.83;;;1.47;;
16878;SDS011;8556;52.218;9.884;2023-02-18T01:49:05;10.00;;;1.80;;
16878;SDS011;8556;52.218;9.884;2023-02-18T01:51:33;6.23;;;1.47;;
16878;SDS011;8556;52.218;9.884;2023-02-18T01:54:03;5.77;;;1.10;;
16878;SDS011;8556;52.218;9.884;2023-02-18T01:56:34;6.83;;;1.93;;
16878;SDS011;8556;52.218;9.884;2023-02-18T01:59:04;6.60;;;1.27;;
16878;SDS011;8556;52.218;9.884;2023-02-18T02:01:33;6.67;;;1.07;;
16878;SDS011;8556;52.218;9.884;2023-02-18T02:04:00;10.50;;;1.70;;
16878;SDS011;8556;52.218;9.884;2023-02-18T02:06:28;5.20;;;1.53;;
16878;SDS011;8556;52.218;9.884;2023-02-18T02:08:56;6.70;;;1.30;;
16878;SDS011;8556;52.218;9.884;2023-02-18T02:11:38;9.07;;;1.67;;
16878;SDS011;8556;52.218;9.884;2023-02-18T02:14:20;6.17;;;1.00;;
16878;SDS011;8556;52.218;9.884;2023-02-18T02:16:56;7.70;;;1.37;;
16878;SDS011;8556;52.218;9.884;2023-02-18T02:19:44;8.43;;;1.23;;
16878;SDS011;8556;52.218;9.884;2023-02-18T02:22:50;4.80;;;1.57;;
16878;SDS011;8556;52.218;9.884;2023-02-18T02:25:56;8.03;;;1.90;;
16878;SDS011;8556;52.218;9.884;2023-02-18T02:31:52;6.60;;;1.57;;
16878;SDS011;8556;52.218;9.884;2023-02-18T02:34:38;9.93;;;1.90;;
16878;SDS011;8556;52.218;9.884;2023-02-18T02:37:16;8.03;;;2.77;;
16878;SDS011;8556;52.218;9.884;2023-02-18T02:39:55;8.47;;;1.90;;
16878;SDS011;8556;52.218;9.884;2023-02-18T02:42:30;14.73;;;2.40;;
16878;SDS011;8556;52.218;9.884;2023-02-18T02:45:12;9.37;;;2.17;;
16878;SDS011;8556;52.218;9.884;2023-02-18T02:47:44;9.33;;;2.50;;
16878;SDS011;8556;52.218;9.884;2023-02-18T02:50:18;13.07;;;3.13;;
16878;SDS011;8556;52.218;9.884;2023-02-18T02:52:49;6.23;;;2.73;;
16878;SDS011;8556;52.218;9.884;2023-02-18T02:55:20;11.27;;;2.97;;
16878;SDS011;8556;52.218;9.884;2023-02-18T02:57:48;13.37;;;3.33;;
16878;SDS011;8556;52.218;9.884;2023-02-18T03:00:19;9.40;;;3.27;;
16878;SDS011;8556;52.218;9.884;2023-02-18T03:02:53;16.20;;;3.37;;
16878;SDS011;8556;52.218;9.884;2023-02-18T03:05:34;10.40;;;3.43;;
16878;SDS011;8556;52.218;9.884;2023-02-18T03:08:13;14.10;;;3.60;;
16878;SDS011;8556;52.218;9.884;2023-02-18T03:10:55;14.67;;;3.60;;
16878;SDS011;8556;52.218;9.884;2023-02-18T03:13:32;11.87;;;3.63;;
16878;SDS011;8556;52.218;9.884;2023-02-18T03:16:10;11.47;;;4.20;;
16878;SDS011;8556;52.218;9.884;2023-02-18T03:18:46;12.50;;;4.47;;
16878;SDS011;8556;52.218;9.884;2023-02-18T03:21:20;11.00;;;4.53;;
16878;SDS011;8556;52.218;9.884;2023-02-18T03:23:52;13.40;;;4.87;;
16878;SDS011;8556;52.218;9.884;2023-02-18T03:26:21;17.67;;;7.07;;
16878;SDS011;8556;52.218;9.884;2023-02-18T03:28:51;17.13;;;5.83;;
16878;SDS011;8556;52.218;9.884;2023-02-18T03:31:20;14.80;;;7.03;;
16878;SDS011;8556;52.218;9.884;2023-02-18T03:33:51;16.60;;;6.33;;
16878;SDS011;8556;52.218;9.884;2023-02-18T03:36:23;18.90;;;6.93;;
16878;SDS011;8556;52.218;9.884;2023-02-18T03:38:52;21.23;;;8.27;;
16878;SDS011;8556;52.218;9.884;2023-02-18T03:41:24;14.73;;;7.20;;
16878;SDS011;8556;52.218;9.884;2023-02-18T03:43:51;17.20;;;7.87;;
16878;SDS011;8556;52.218;9.884;2023-02-18T03:46:19;19.33;;;8.47;;
16878;SDS011;8556;52.218;9.884;2023-02-18T03:48:46;17.00;;;9.03;;
16878;SDS011;8556;52.218;9.884;2023-02-18T03:51:13;21.27;;;9.23;;
16878;SDS011;8556;52.218;9.884;2023-02-18T03:53:41;20.50;;;9.23;;
16878;SDS011;8556;52.218;9.884;2023-02-18T03:56:07;18.23;;;8.17;;
16878;SDS011;8556;52.218;9.884;2023-02-18T03:58:34;22.67;;;9.83;;
16878;SDS011;8556;52.218;9.884;2023-02-18T04:01:01;16.63;;;8.30;;
16878;SDS011;8556;52.218;9.884;2023-02-18T04:03:28;23.93;;;10.30;;
16878;SDS011;8556;52.218;9.884;2023-02-18T04:05:55;20.97;;;9.40;;
16878;SDS011;8556;52.218;9.884;2023-02-18T04:08:22;21.30;;;9.07;;
16878;SDS011;8556;52.218;9.884;2023-02-18T04:10:51;20.67;;;9.00;;
16878;SDS011;8556;52.218;9.884;2023-02-18T04:13:18;20.50;;;9.07;;
16878;SDS011;8556;52.218;9.884;2023-02-18T04:15:44;22.00;;;9.07;;
16878;SDS011;8556;52.218;9.884;2023-02-18T04:18:13;20.20;;;8.53;;
16878;SDS011;8556;52.218;9.884;2023-02-18T04:20:40;23.77;;;9.30;;
16878;SDS011;8556;52.218;9.884;2023-02-18T04:23:07;21.00;;;9.60;;
16878;SDS011;8556;52.218;9.884;2023-02-18T04:25:34;19.27;;;9.23;;
16878;SDS011;8556;52.218;9.884;2023-02-18T04:28:03;21.83;;;10.77;;
16878;SDS011;8556;52.218;9.884;2023-02-18T04:30:30;25.37;;;10.27;;
16878;SDS011;8556;52.218;9.884;2023-02-18T04:32:57;25.10;;;10.93;;
16878;SDS011;8556;52.218;9.884;2023-02-18T04:35:24;23.60;;;11.07;;
16878;SDS011;8556;52.218;9.884;2023-02-18T04:37:50;20.50;;;10.17;;
16878;SDS011;8556;52.218;9.884;2023-02-18T04:40:17;24.87;;;10.87;;
16878;SDS011;8556;52.218;9.884;2023-02-18T04:42:44;26.60;;;11.47;;
16878;SDS011;8556;52.218;9.884;2023-02-18T04:45:12;26.80;;;11.70;;
16878;SDS011;8556;52.218;9.884;2023-02-18T04:47:39;28.30;;;11.43;;
16878;SDS011;8556;52.218;9.884;2023-02-18T04:50:07;28.87;;;11.77;;
16878;SDS011;8556;52.218;9.884;2023-02-18T04:52:34;25.37;;;11.50;;
16878;SDS011;8556;52.218;9.884;2023-02-18T04:55:01;26.07;;;12.63;;
16878;SDS011;8556;52.218;9.884;2023-02-18T04:57:28;22.50;;;11.23;;
16878;SDS011;8556;52.218;9.884;2023-02-18T04:59:55;24.40;;;11.30;;
16878;SDS011;8556;52.218;9.884;2023-02-18T05:02:23;24.63;;;12.00;;
16878;SDS011;8556;52.218;9.884;2023-02-18T05:04:50;23.17;;;11.63;;
16878;SDS011;8556;52.218;9.884;2023-02-18T05:07:17;25.20;;;12.17;;
16878;SDS011;8556;52.218;9.884;2023-02-18T05:09:43;21.40;;;11.43;;
16878;SDS011;8556;52.218;9.884;2023-02-18T05:12:10;21.87;;;11.33;;
16878;SDS011;8556;52.218;9.884;2023-02-18T05:14:37;23.03;;;11.30;;
16878;SDS011;8556;52.218;9.884;2023-02-18T05:17:04;24.57;;;10.80;;
16878;SDS011;8556;52.218;9.884;2023-02-18T05:19:33;26.03;;;11.03;;
16878;SDS011;8556;52.218;9.884;2023-02-18T05:22:00;26.03;;;11.63;;
16878;SDS011;8556;52.218;9.884;2023-02-18T05:24:27;24.17;;;11.57;;
16878;SDS011;8556;52.218;9.884;2023-02-18T05:26:54;23.77;;;12.47;;
16878;SDS011;8556;52.218;9.884;2023-02-18T05:29:21;23.30;;;11.63;;
16878;SDS011;8556;52.218;9.884;2023-02-18T05:31:51;24.60;;;12.00;;
16878;SDS011;8556;52.218;9.884;2023-02-18T05:34:18;66.47;;;38.20;;
16878;SDS011;8556;52.218;9.884;2023-02-18T05:36:46;29.07;;;14.73;;
16878;SDS011;8556;52.218;9.884;2023-02-18T05:39:13;28.17;;;13.30;;
16878;SDS011;8556;52.218;9.884;2023-02-18T05:41:40;23.80;;;12.40;;
16878;SDS011;8556;52.218;9.884;2023-02-18T05:44:08;27.37;;;12.23;;
16878;SDS011;8556;52.218;9.884;2023-02-18T05:46:53;26.40;;;13.70;;
16878;SDS011;8556;52.218;9.884;2023-02-18T05:49:19;26.67;;;13.87;;
16878;SDS011;8556;52.218;9.884;2023-02-18T05:51:48;28.23;;;14.33;;
16878;SDS011;8556;52.218;9.884;2023-02-18T05:54:15;32.43;;;14.17;;
16878;SDS011;8556;52.218;9.884;2023-02-18T05:56:42;26.33;;;12.93;;
16878;SDS011;8556;52.218;9.884;2023-02-18T05:59:09;27.77;;;12.90;;
16878;SDS011;8556;52.218;9.884;2023-02-18T06:01:39;24.77;;;13.67;;
16878;SDS011;8556;52.218;9.884;2023-02-18T06:04:06;29.87;;;13.80;;
16878;SDS011;8556;52.218;9.884;2023-02-18T06:06:33;25.73;;;12.63;;
16878;SDS011;8556;52.218;9.884;2023-02-18T06:09:03;23.03;;;12.43;;
16878;SDS011;8556;52.218;9.884;2023-02-18T06:11:32;27.73;;;12.80;;
16878;SDS011;8556;52.218;9.884;2023-02-18T06:13:59;26.43;;;13.20;;
16878;SDS011;8556;52.218;9.884;2023-02-18T06:16:27;29.40;;;13.67;;
16878;SDS011;8556;52.218;9.884;2023-02-18T06:18:54;26.83;;;13.00;;
16878;SDS011;8556;52.218;9.884;2023-02-18T06:21:21;29.60;;;14.93;;
16878;SDS011;8556;52.218;9.884;2023-02-18T06:23:48;27.03;;;13.53;;
16878;SDS011;8556;52.218;9.884;2023-02-18T06:26:17;28.73;;;13.53;;
16878;SDS011;8556;52.218;9.884;2023-02-18T06:28:44;29.10;;;14.63;;
16878;SDS011;8556;52.218;9.884;2023-02-18T06:31:10;31.17;;;15.80;;
16878;SDS011;8556;52.218;9.884;2023-02-18T06:33:37;28.27;;;14.03;;
16878;SDS011;8556;52.218;9.884;2023-02-18T06:36:05;24.97;;;12.80;;
16878;SDS011;8556;52.218;9.884;2023-02-18T06:38:35;25.30;;;13.77;;
16878;SDS011;8556;52.218;9.884;2023-02-18T06:41:03;23.70;;;12.23;;
16878;SDS011;8556;52.218;9.884;2023-02-18T06:43:32;23.90;;;12.57;;
16878;SDS011;8556;52.218;9.884;2023-02-18T06:45:59;21.77;;;11.67;;
16878;SDS011;8556;52.218;9.884;2023-02-18T06:48:27;24.83;;;11.37;;
16878;SDS011;8556;52.218;9.884;2023-02-18T06:50:54;23.23;;;11.00;;
16878;SDS011;8556;52.218;9.884;2023-02-18T06:53:21;19.67;;;10.07;;
16878;SDS011;8556;52.218;9.884;2023-02-18T06:55:48;22.33;;;11.73;;
16878;SDS011;8556;52.218;9.884;2023-02-18T06:58:15;21.80;;;10.17;;
16878;SDS011;8556;52.218;9.884;2023-02-18T07:00:44;20.67;;;10.23;;
16878;SDS011;8556;52.218;9.884;2023-02-18T07:03:11;22.17;;;11.03;;
16878;SDS011;8556;52.218;9.884;2023-02-18T07:05:38;22.63;;;11.37;;
16878;SDS011;8556;52.218;9.884;2023-02-18T07:08:05;19.17;;;10.50;;
16878;SDS011;8556;52.218;9.884;2023-02-18T07:10:32;19.23;;;9.73;;
16878;SDS011;8556;52.218;9.884;2023-02-18T07:12:59;17.70;;;8.80;;
16878;SDS011;8556;52.218;9.884;2023-02-18T07:15:25;19.00;;;9.83;;
16878;SDS011;8556;52.218;9.884;2023-02-18T07:17:54;19.70;;;9.53;;
16878;SDS011;8556;52.218;9.884;2023-02-18T07:20:21;19.67;;;9.63;;
16878;SDS011;8556;52.218;9.884;2023-02-18T07:22:48;16.77;;;8.17;;
16878;SDS011;8556;52.218;9.884;2023-02-18T07:25:15;17.33;;;8.23;;
16878;SDS011;8556;52.218;9.884;2023-02-18T07:27:42;16.73;;;7.67;;
16878;SDS011;8556;52.218;9.884;2023-02-18T07:30:10;14.00;;;7.30;;
16878;SDS011;8556;52.218;9.884;2023-02-18T07:32:37;16.07;;;7.60;;
16878;SDS011;8556;52.218;9.884;2023-02-18T07:35:06;14.43;;;6.83;;
16878;SDS011;8556;52.218;9.884;2023-02-18T07:37:42;14.93;;;7.50;;
16878;SDS011;8556;52.218;9.884;2023-02-18T07:40:11;15.47;;;6.93;;
16878;SDS011;8556;52.218;9.884;2023-02-18T07:42:39;13.13;;;5.90;;
16878;SDS011;8556;52.218;9.884;2023-02-18T07:45:07;14.13;;;6.00;;
16878;SDS011;8556;52.218;9.884;2023-02-18T07:47:34;13.10;;;6.70;;
16878;SDS011;8556;52.218;9.884;2023-02-18T07:50:02;12.87;;;6.30;;
16878;SDS011;8556;52.218;9.884;2023-02-18T07:52:31;14.20;;;6.43;;
16878;SDS011;8556;52.218;9.884;2023-02-18T07:54:58;12.20;;;6.03;;
16878;SDS011;8556;52.218;9.884;2023-02-18T07:57:24;12.30;;;6.13;;
16878;SDS011;8556;52.218;9.884;2023-02-18T07:59:52;10.63;;;5.37;;
16878;SDS011;8556;52.218;9.884;2023-02-18T08:02:19;10.97;;;5.97;;
16878;SDS011;8556;52.218;9.884;2023-02-18T08:04:47;9.10;;;4.77;;
16878;SDS011;8556;52.218;9.884;2023-02-18T08:07:15;11.00;;;5.57;;
16878;SDS011;8556;52.218;9.884;2023-02-18T08:09:45;8.73;;;4.83;;
16878;SDS011;8556;52.218;9.884;2023-02-18T08:12:13;8.13;;;4.23;;
16878;SDS011;8556;52.218;9.884;2023-02-18T08:14:39;9.83;;;4.80;;
16878;SDS011;8556;52.218;9.884;2023-02-18T08:17:06;6.90;;;3.03;;
16878;SDS011;8556;52.218;9.884;2023-02-18T08:19:33;5.13;;;2.80;;
16878;SDS011;8556;52.218;9.884;2023-02-18T08:22:00;2.07;;;1.67;;
16878;SDS011;8556;52.218;9.884;2023-02-18T08:24:28;2.53;;;1.77;;
16878;SDS011;8556;52.218;9.884;2023-02-18T08:26:56;2.47;;;0.90;;
16878;SDS011;8556;52.218;9.884;2023-02-18T08:29:23;1.30;;;0.93;;
16878;SDS011;8556;52.218;9.884;2023-02-18T08:31:49;1.40;;;1.00;;
16878;SDS011;8556;52.218;9.884;2023-02-18T08:34:18;1.03;;;0.93;;
16878;SDS011;8556;52.218;9.884;2023-02-18T08:36:45;1.30;;;0.80;;
16878;SDS011;8556;52.218;9.884;2023-02-18T08:39:11;0.97;;;0.70;;
16878;SDS011;8556;52.218;9.884;2023-02-18T08:41:38;1.13;;;0.93;;
16878;SDS011;8556;52.218;9.884;2023-02-18T08:44:06;1.17;;;1.03;;
16878;SDS011;8556;52.218;9.884;2023-02-18T08:46:33;1.20;;;0.80;;
16878;SDS011;8556;52.218;9.884;2023-02-18T08:49:00;1.10;;;0.90;;
16878;SDS011;8556;52.218;9.884;2023-02-18T08:51:27;1.10;;;0.80;;
16878;SDS011;8556;52.218;9.884;2023-02-18T08:53:54;1.10;;;1.00;;
16878;SDS011;8556;52.218;9.884;2023-02-18T08:56:20;1.10;;;1.00;;
16878;SDS011;8556;52.218;9.884;2023-02-18T08:58:47;0.83;;;0.83;;
16878;SDS011;8556;52.218;9.884;2023-02-18T09:01:15;0.90;;;0.87;;
16878;SDS011;8556;52.218;9.884;2023-02-18T09:03:42;1.10;;;1.00;;
16878;SDS011;8556;52.218;9.884;2023-02-18T09:06:10;1.80;;;1.50;;
16878;SDS011;8556;52.218;9.884;2023-02-18T09:08:37;0.70;;;0.70;;
16878;SDS011;8556;52.218;9.884;2023-02-18T09:11:04;1.20;;;1.10;;
16878;SDS011;8556;52.218;9.884;2023-02-18T09:13:32;1.67;;;1.30;;
16878;SDS011;8556;52.218;9.884;2023-02-18T09:15:59;1.20;;;1.10;;
16878;SDS011;8556;52.218;9.884;2023-02-18T09:18:29;1.00;;;1.00;;
16878;SDS011;8556;52.218;9.884;2023-02-18T09:20:57;1.10;;;1.00;;
16878;SDS011;8556;52.218;9.884;2023-02-18T09:23:26;0.80;;;0.80;;
16878;SDS011;8556;52.218;9.884;2023-02-18T09:25:55;1.20;;;1.10;;
16878;SDS011;8556;52.218;9.884;2023-02-18T09:28:22;0.90;;;0.90;;
16878;SDS011;8556;52.218;9.884;2023-02-18T09:30:49;1.17;;;1.03;;
16878;SDS011;8556;52.218;9.884;2023-02-18T09:33:16;1.40;;;1.20;;
16878;SDS011;8556;52.218;9.884;2023-02-18T09:35:45;1.93;;;1.27;;
16878;SDS011;8556;52.218;9.884;2023-02-18T09:38:13;1.00;;;1.00;;
16878;SDS011;8556;52.218;9.884;2023-02-18T09:40:42;0.87;;;0.77;;
16878;SDS011;8556;52.218;9.884;2023-02-18T09:43:12;0.90;;;0.70;;
16878;SDS011;8556;52.218;9.884;2023-02-18T09:45:47;0.70;;;0.70;;
16878;SDS011;8556;52.218;9.884;2023-02-18T09:48:15;1.20;;;1.10;;
16878;SDS011;8556;52.218;9.884;2023-02-18T09:50:50;2.20;;;1.60;;
16878;SDS011;8556;52.218;9.884;2023-02-18T09:53:20;2.43;;;1.87;;
16878;SDS011;8556;52.218;9.884;2023-02-18T09:55:48;2.33;;;2.13;;
16878;SDS011;8556;52.218;9.884;2023-02-18T09:58:18;2.40;;;2.00;;
16878;SDS011;8556;52.218;9.884;2023-02-18T10:00:48;1.63;;;1.33;;
16878;SDS011;8556;52.218;9.884;2023-02-18T10:03:18;1.90;;;1.80;;
16878;SDS011;8556;52.218;9.884;2023-02-18T10:05:50;1.80;;;1.60;;
16878;SDS011;8556;52.218;9.884;2023-02-18T10:08:22;2.20;;;2.00;;
16878;SDS011;8556;52.218;9.884;2023-02-18T10:10:51;2.00;;;1.90;;
16878;SDS011;8556;52.218;9.884;2023-02-18T10:13:19;2.30;;;2.10;;
16878;SDS011;8556;52.218;9.884;2023-02-18T10:15:47;2.10;;;1.90;;
16878;SDS011;8556;52.218;9.884;2023-02-18T10:18:18;2.30;;;2.07;;
16878;SDS011;8556;52.218;9.884;2023-02-18T10:21:00;2.10;;;1.90;;
16878;SDS011;8556;52.218;9.884;2023-02-18T10:23:31;2.57;;;2.07;;
16878;SDS011;8556;52.218;9.884;2023-02-18T10:26:00;2.87;;;2.40;;
16878;SDS011;8556;52.218;9.884;2023-02-18T10:28:29;2.50;;;2.30;;
16878;SDS011;8556;52.218;9.884;2023-02-18T10:30:58;2.50;;;2.30;;
16878;SDS011;8556;52.218;9.884;2023-02-18T10:33:32;2.27;;;2.07;;
16878;SDS011;8556;52.218;9.884;2023-02-18T10:36:14;2.40;;;2.20;;
16878;SDS011;8556;52.218;9.884;2023-02-18T10:38:54;2.47;;;2.13;;
16878;SDS011;8556;52.218;9.884;2023-02-18T10:41:44;2.27;;;2.07;;
16878;SDS011;8556;52.218;9.884;2023-02-18T10:44:22;2.47;;;2.27;;
16878;SDS011;8556;52.218;9.884;2023-02-18T10:47:03;2.73;;;2.30;;
16878;SDS011;8556;52.218;9.884;2023-02-18T10:49:46;2.30;;;2.10;;
16878;SDS011;8556;52.218;9.884;2023-02-18T10:52:24;2.40;;;2.20;;
16878;SDS011;8556;52.218;9.884;2023-02-18T10:54:57;2.83;;;2.50;;
16878;SDS011;8556;52.218;9.884;2023-02-18T10:57:25;2.57;;;2.30;;
16878;SDS011;8556;52.218;9.884;2023-02-18T10:59:56;2.33;;;2.13;;
16878;SDS011;8556;52.218;9.884;2023-02-18T11:02:27;3.67;;;2.50;;
16878;SDS011;8556;52.218;9.884;2023-02-18T11:04:56;3.80;;;2.70;;
16878;SDS011;8556;52.218;9.884;2023-02-18T11:07:30;3.30;;;2.90;;
16878;SDS011;8556;52.218;9.884;2023-02-18T11:09:59;3.00;;;2.70;;
16878;SDS011;8556;52.218;9.884;2023-02-18T11:12:38;3.77;;;2.70;;
16878;SDS011;8556;52.218;9.884;2023-02-18T11:15:16;3.50;;;3.20;;
16878;SDS011;8556;52.218;9.884;2023-02-18T11:17:45;3.27;;;2.63;;
16878;SDS011;8556;52.218;9.884;2023-02-18T11:20:29;3.43;;;3.10;;
16878;SDS011;8556;52.218;9.884;2023-02-18T11:23:12;4.93;;;4.00;;
16878;SDS011;8556;52.218;9.884;2023-02-18T11:25:51;5.77;;;3.90;;
16878;SDS011;8556;52.218;9.884;2023-02-18T11:28:33;6.63;;;4.37;;
16878;SDS011;8556;52.218;9.884;2023-02-18T11:31:10;7.43;;;4.50;;
16878;SDS011;8556;52.218;9.884;2023-02-18T11:33:42;6.13;;;4.00;;
16878;SDS011;8556;52.218;9.884;2023-02-18T11:36:16;4.43;;;3.50;;
16878;SDS011;8556;52.218;9.884;2023-02-18T11:38:51;4.53;;;3.50;;
16878;SDS011;8556;52.218;9.884;2023-02-18T11:41:27;3.77;;;3.40;;
16878;SDS011;8556;52.218;9.884;2023-02-18T11:43:57;3.63;;;3.10;;
16878;SDS011;8556;52.218;9.884;2023-02-18T11:46:25;3.27;;;2.97;;
16878;SDS011;8556;52.218;9.884;2023-02-18T11:48:53;3.23;;;2.93;;
16878;SDS011;8556;52.218;9.884;2023-02-18T11:51:23;3.40;;;2.70;;
16878;SDS011;8556;52.218;9.884;2023-02-18T11:53:58;2.77;;;2.20;;
16878;SDS011;8556;52.218;9.884;2023-02-18T11:56:28;2.03;;;1.83;;
16878;SDS011;8556;52.218;9.884;2023-02-18T11:59:12;2.23;;;2.03;;
16878;SDS011;8556;52.218;9.884;2023-02-18T12:01:42;2.57;;;2.20;;
16878;SDS011;8556;52.218;9.884;2023-02-18T12:04:13;2.10;;;1.93;;
16878;SDS011;8556;52.218;9.884;2023-02-18T12:06:44;2.23;;;2.03;;
16878;SDS011;8556;52.218;9.884;2023-02-18T12:09:19;2.30;;;2.10;;
16878;SDS011;8556;52.218;9.884;2023-02-18T12:11:52;2.97;;;1.60;;
16878;SDS011;8556;52.218;9.884;2023-02-18T12:14:22;2.40;;;2.00;;
16878;SDS011;8556;52.218;9.884;2023-02-18T12:19:59;4.53;;;2.00;;
16878;SDS011;8556;52.218;9.884;2023-02-18T12:22:40;2.07;;;1.73;;
16878;SDS011;8556;52.218;9.884;2023-02-18T12:28:02;1.60;;;1.47;;
16878;SDS011;8556;52.218;9.884;2023-02-18T12:30:44;1.53;;;1.20;;
16878;SDS011;8556;52.218;9.884;2023-02-18T12:33:43;1.70;;;1.47;;
16878;SDS011;8556;52.218;9.884;2023-02-18T12:36:23;1.30;;;1.20;;
16878;SDS011;8556;52.218;9.884;2023-02-18T12:39:08;1.70;;;1.40;;
16878;SDS011;8556;52.218;9.884;2023-02-18T12:41:50;2.80;;;1.20;;
16878;SDS011;8556;52.218;9.884;2023-02-18T12:44:34;1.30;;;1.20;;
16878;SDS011;8556;52.218;9.884;2023-02-18T12:47:29;1.20;;;1.10;;
16878;SDS011;8556;52.218;9.884;2023-02-18T12:53:23;1.20;;;1.10;;
16878;SDS011;8556;52.218;9.884;2023-02-18T12:56:11;1.00;;;0.70;;
16878;SDS011;8556;52.218;9.884;2023-02-18T12:59:06;1.93;;;1.07;;
16878;SDS011;8556;52.218;9.884;2023-02-18T13:01:42;1.43;;;1.00;;
16878;SDS011;8556;52.218;9.884;2023-02-18T13:07:33;1.23;;;1.00;;
16878;SDS011;8556;52.218;9.884;2023-02-18T13:10:22;0.70;;;0.70;;
16878;SDS011;8556;52.218;9.884;2023-02-18T13:13:02;1.20;;;0.93;;
16878;SDS011;8556;52.218;9.884;2023-02-18T13:15:37;1.23;;;0.80;;
16878;SDS011;8556;52.218;9.884;2023-02-18T13:18:09;2.43;;;1.00;;
16878;SDS011;8556;52.218;9.884;2023-02-18T13:20:39;1.10;;;1.00;;
16878;SDS011;8556;52.218;9.884;2023-02-18T13:23:10;0.87;;;0.87;;
16878;SDS011;8556;52.218;9.884;2023-02-18T13:25:42;1.20;;;1.10;;
16878;SDS011;8556;52.218;9.884;2023-02-18T13:28:11;1.60;;;1.40;;
16878;SDS011;8556;52.218;9.884;2023-02-18T13:30:48;1.40;;;1.00;;
16878;SDS011;8556;52.218;9.884;2023-02-18T13:33:26;1.63;;;0.90;;
16878;SDS011;8556;52.218;9.884;2023-02-18T13:36:03;1.10;;;0.90;;
16878;SDS011;8556;52.218;9.884;2023-02-18T13:38:48;1.20;;;1.10;;
16878;SDS011;8556;52.218;9.884;2023-02-18T13:41:24;1.00;;;0.90;;
16878;SDS011;8556;52.218;9.884;2023-02-18T13:43:52;1.37;;;1.27;;
16878;SDS011;8556;52.218;9.884;2023-02-18T13:46:21;1.50;;;1.33;;
16878;SDS011;8556;52.218;9.884;2023-02-18T13:48:49;1.37;;;1.27;;
16878;SDS011;8556;52.218;9.884;2023-02-18T13:51:26;1.80;;;1.30;;
16878;SDS011;8556;52.218;9.884;2023-02-18T13:53:57;1.13;;;1.03;;
16878;SDS011;8556;52.218;9.884;2023-02-18T13:56:30;1.10;;;1.00;;
16878;SDS011;8556;52.218;9.884;2023-02-18T13:58:59;1.30;;;1.20;;
16878;SDS011;8556;52.218;9.884;2023-02-18T14:01:39;0.90;;;0.90;;
16878;SDS011;8556;52.218;9.884;2023-02-18T14:07:19;2.93;;;1.60;;
16878;SDS011;8556;52.218;9.884;2023-02-18T14:09:51;1.30;;;1.20;;
16878;SDS011;8556;52.218;9.884;2023-02-18T14:12:34;1.90;;;1.13;;
16878;SDS011;8556;52.218;9.884;2023-02-18T14:18:23;2.90;;;2.00;;
16878;SDS011;8556;52.218;9.884;2023-02-18T14:20:51;2.43;;;1.60;;
16878;SDS011;8556;52.218;9.884;2023-02-18T14:23:43;2.70;;;1.97;;
16878;SDS011;8556;52.218;9.884;2023-02-18T14:26:27;2.90;;;2.03;;
16878;SDS011;8556;52.218;9.884;2023-02-18T14:28:57;2.63;;;1.90;;
16878;SDS011;8556;52.218;9.884;2023-02-18T14:31:32;1.97;;;1.60;;
16878;SDS011;8556;52.218;9.884;2023-02-18T14:40:13;4.57;;;2.60;;
16878;SDS011;8556;52.218;9.884;2023-02-18T14:43:06;2.73;;;2.20;;
16878;SDS011;8556;52.218;9.884;2023-02-18T14:49:01;2.87;;;2.57;;
16878;SDS011;8556;52.218;9.884;2023-02-18T14:51:42;2.10;;;1.90;;
16878;SDS011;8556;52.218;9.884;2023-02-18T14:54:12;2.37;;;2.00;;
16878;SDS011;8556;52.218;9.884;2023-02-18T14:56:41;2.27;;;1.97;;
16878;SDS011;8556;52.218;9.884;2023-02-18T14:59:17;2.57;;;2.37;;
16878;SDS011;8556;52.218;9.884;2023-02-18T15:01:45;2.00;;;1.60;;
16878;SDS011;8556;52.218;9.884;2023-02-18T15:04:13;1.97;;;1.67;;
16878;SDS011;8556;52.218;9.884;2023-02-18T15:07:03;2.07;;;1.63;;
16878;SDS011;8556;52.218;9.884;2023-02-18T15:09:55;1.63;;;0.90;;
16878;SDS011;8556;52.218;9.884;2023-02-18T15:12:24;2.43;;;1.40;;
16878;SDS011;8556;52.218;9.884;2023-02-18T15:14:51;2.27;;;1.67;;
16878;SDS011;8556;52.218;9.884;2023-02-18T15:17:20;2.30;;;1.30;;
16878;SDS011;8556;52.218;9.884;2023-02-18T15:19:51;3.10;;;2.00;;
16878;SDS011;8556;52.218;9.884;2023-02-18T15:22:21;2.13;;;2.00;;
16878;SDS011;8556;52.218;9.884;2023-02-18T15:24:50;2.47;;;1.93;;
16878;SDS011;8556;52.218;9.884;2023-02-18T15:27:19;4.23;;;2.17;;
16878;SDS011;8556;52.218;9.884;2023-02-18T15:29:49;3.47;;;2.20;;
16878;SDS011;8556;52.218;9.884;2023-02-18T15:32:17;2.80;;;2.47;;
16878;SDS011;8556;52.218;9.884;2023-02-18T15:34:48;3.10;;;2.60;;
16878;SDS011;8556;52.218;9.884;2023-02-18T15:37:16;3.77;;;2.47;;
16878;SDS011;8556;52.218;9.884;2023-02-18T15:39:45;4.27;;;2.63;;
16878;SDS011;8556;52.218;9.884;2023-02-18T15:42:15;4.40;;;3.00;;
16878;SDS011;8556;52.218;9.884;2023-02-18T15:44:48;4.83;;;2.97;;
16878;SDS011;8556;52.218;9.884;2023-02-18T15:47:18;4.00;;;2.63;;